createdAt,value
2023-04-16T00:04:39.346Z,13.7
2023-04-16T00:09:39.314Z,13.7
2023-04-16T00:14:39.358Z,13.7
2023-04-16T00:19:39.538Z,13.7
2023-04-16T00:24:39.949Z,13.7
2023-04-16T00:29:39.268Z,13.9
2023-04-16T00:34:39.315Z,13.9
2023-04-16T00:39:39.393Z,13.9
2023-04-16T00:44:39.293Z,13.9
2023-04-16T00:49:39.236Z,13.9
2023-04-16T00:54:39.309Z,13.9
2023-04-16T00:59:39.217Z,13.9
2023-04-16T01:04:39.346Z,13.9
2023-04-16T01:09:39.352Z,13.9
2023-04-16T01:14:39.339Z,13.8
2023-04-16T01:19:39.400Z,13.4
2023-04-16T01:24:39.248Z,13.8
2023-04-16T01:29:39.297Z,13.7
2023-04-16T01:34:39.252Z,13.4
2023-04-16T01:39:39.308Z,13.4
2023-04-16T01:44:39.208Z,13.4
2023-04-16T01:49:39.551Z,13.4
2023-04-16T01:54:39.463Z,13.4
2023-04-16T01:59:39.180Z,13.4
2023-04-16T02:04:39.301Z,13.4
2023-04-16T02:09:39.701Z,13
2023-04-16T02:14:39.340Z,13.7
2023-04-16T02:19:39.296Z,13.7
2023-04-16T02:24:39.299Z,13.7
2023-04-16T02:29:39.266Z,13.8
2023-04-16T02:34:39.337Z,13.8
2023-04-16T02:39:39.320Z,14.1
2023-04-16T02:44:39.359Z,14.1
2023-04-16T02:49:39.575Z,14.2
2023-04-16T02:54:39.250Z,14.2
2023-04-16T02:59:39.342Z,14.4
2023-04-16T03:04:39.316Z,15
2023-04-16T03:09:39.369Z,15.3
2023-04-16T03:14:39.333Z,15
2023-04-16T03:19:39.405Z,15.1
2023-04-16T03:24:39.310Z,15
2023-04-16T03:29:39.225Z,14.5
2023-04-16T03:34:39.240Z,15.1
2023-04-16T03:39:39.689Z,14.6
2023-04-16T03:44:39.357Z,14.6
2023-04-16T03:49:39.282Z,14.7
2023-04-16T03:54:39.344Z,14.6
2023-04-16T03:59:39.293Z,14.7
2023-04-16T04:04:39.166Z,14.7
2023-04-16T04:09:39.291Z,14.6
2023-04-16T04:14:39.201Z,14.3
2023-04-16T04:19:54.530Z,13.5
2023-04-16T04:24:39.262Z,13.2
2023-04-16T04:29:39.642Z,13.2
2023-04-16T04:34:39.224Z,13.2
2023-04-16T04:39:39.243Z,13.2
2023-04-16T04:44:39.209Z,13.3
2023-04-16T04:49:39.745Z,13.3
2023-04-16T04:54:39.201Z,13.3
2023-04-16T04:59:39.228Z,13.4
2023-04-16T05:04:39.226Z,13.7
2023-04-16T05:09:39.730Z,14.3
2023-04-16T05:14:39.246Z,14.3
2023-04-16T05:19:39.332Z,14.3
2023-04-16T05:24:39.267Z,14.3
2023-04-16T05:29:39.243Z,14.3
2023-04-16T05:34:39.252Z,13.9
2023-04-16T05:39:39.225Z,14.3
2023-04-16T05:44:39.328Z,13.9
2023-04-16T05:49:39.219Z,13.9
2023-04-16T05:54:39.217Z,13.9
2023-04-16T05:59:39.199Z,14.2
2023-04-16T06:04:39.214Z,14.5
2023-04-16T06:09:39.233Z,14.5
2023-04-16T06:14:39.242Z,14.2
2023-04-16T06:19:40.171Z,14.2
2023-04-16T06:24:39.242Z,14.5
2023-04-16T06:29:42.305Z,13.8
2023-04-16T06:34:39.231Z,13.7
2023-04-16T06:39:39.329Z,13.3
2023-04-16T06:44:39.279Z,13
2023-04-16T06:49:39.287Z,11.9
2023-04-16T06:54:39.311Z,10.8
2023-04-16T06:59:39.203Z,10.1
2023-04-16T07:04:39.301Z,10.1
2023-04-16T07:09:39.229Z,10.1
2023-04-16T07:14:39.777Z,9.6
2023-04-16T07:19:39.231Z,9.7
2023-04-16T07:24:39.324Z,9.6
2023-04-16T07:29:39.296Z,9.6
2023-04-16T07:34:39.350Z,9.3
2023-04-16T07:39:39.258Z,9.1
2023-04-16T07:44:39.247Z,8.8
2023-04-16T07:49:39.285Z,8.1
2023-04-16T07:54:39.257Z,8
2023-04-16T07:59:39.279Z,7.5
2023-04-16T08:04:39.348Z,7.3
2023-04-16T08:09:39.351Z,7.3
2023-04-16T08:14:39.251Z,6.3
2023-04-16T08:19:39.278Z,6.3
2023-04-16T08:24:39.319Z,6.3
2023-04-16T08:29:39.280Z,5.7
2023-04-16T08:34:39.286Z,4.8
2023-04-16T08:39:39.344Z,4.4
2023-04-16T08:44:39.405Z,3.9
2023-04-16T08:49:39.380Z,3.9
2023-04-16T08:54:39.267Z,3.9
2023-04-16T08:59:39.205Z,3.8
2023-04-16T09:04:39.391Z,3.8
2023-04-16T09:09:39.317Z,3.1
2023-04-16T09:14:39.278Z,2.9
2023-04-16T09:19:39.231Z,2.9
2023-04-16T09:24:39.281Z,2.9
2023-04-16T09:29:39.286Z,2.9
2023-04-16T09:34:39.332Z,2.8
2023-04-16T09:39:39.259Z,2.8
2023-04-16T09:44:39.340Z,2.8
2023-04-16T09:49:39.238Z,2.5
2023-04-16T09:54:39.268Z,2.2
2023-04-16T09:59:39.271Z,1.9
2023-04-16T10:04:39.341Z,1.9
2023-04-16T10:09:39.440Z,1.8
2023-04-16T10:14:39.284Z,1.8
2023-04-16T10:19:39.319Z,1.8
2023-04-16T10:24:39.368Z,1.5
2023-04-16T10:29:39.297Z,1.5
2023-04-16T10:34:39.274Z,1.3
2023-04-16T10:39:39.247Z,1.3
2023-04-16T10:44:39.239Z,1.3
2023-04-16T10:49:39.282Z,1.3
2023-04-16T10:54:39.220Z,1.3
2023-04-16T10:59:39.272Z,1.3
2023-04-16T11:04:39.419Z,1.4
2023-04-16T11:09:39.415Z,1.4
2023-04-16T11:14:39.226Z,1.4
2023-04-16T11:19:39.326Z,1.5
2023-04-16T11:24:39.260Z,1.7
2023-04-16T11:29:39.270Z,1.7
2023-04-16T11:34:39.236Z,1.7
2023-04-16T11:39:39.327Z,1.4
2023-04-16T11:44:39.242Z,1.8
2023-04-16T11:49:39.231Z,1.4
2023-04-16T11:54:39.423Z,1
2023-04-16T12:00:01.289Z,1
2023-04-16T12:04:39.426Z,1
2023-04-16T12:09:42.300Z,0.9
2023-04-16T12:14:39.295Z,1
2023-04-16T12:19:39.241Z,1
2023-04-16T12:24:39.618Z,1.2
2023-04-16T12:29:39.326Z,1.2
2023-04-16T12:34:49.335Z,1.1
2023-04-16T12:39:39.317Z,1.1
2023-04-16T12:44:39.289Z,1.1
2023-04-16T12:49:39.375Z,1.1
2023-04-16T12:54:39.348Z,1.1
2023-04-16T12:59:39.288Z,1.1
2023-04-16T13:04:39.518Z,1.1
2023-04-16T13:09:43.023Z,1.2
2023-04-16T13:14:39.289Z,1.4
2023-04-16T13:19:39.294Z,1.4
2023-04-16T13:24:39.429Z,1.7
2023-04-16T13:29:39.357Z,1.7
2023-04-16T13:34:39.471Z,1.6
2023-04-16T13:39:39.482Z,1.6
2023-04-16T13:44:39.336Z,1.7
2023-04-16T13:49:39.396Z,1.7
2023-04-16T13:54:42.953Z,2
2023-04-16T13:59:39.302Z,2.3
2023-04-16T14:04:39.338Z,2.6
2023-04-16T14:09:39.387Z,2.6
2023-04-16T14:14:39.269Z,2.3
2023-04-16T14:19:39.320Z,2.3
2023-04-16T14:24:39.421Z,2.1
2023-04-16T14:29:39.287Z,2.1
2023-04-16T14:34:39.325Z,2.1
2023-04-16T14:39:39.459Z,2.1
2023-04-16T14:44:39.478Z,2.1
2023-04-16T14:49:39.335Z,2.1
2023-04-16T14:54:39.404Z,2.1
2023-04-16T14:59:40.316Z,2.6
2023-04-16T15:04:39.739Z,2.1
2023-04-16T15:09:39.424Z,2.1
2023-04-16T15:14:39.546Z,2.1
2023-04-16T15:19:39.306Z,2.6
2023-04-16T15:24:39.290Z,3.1
2023-04-16T15:29:39.296Z,3.1
2023-04-16T15:34:39.302Z,4
2023-04-16T15:39:39.281Z,4
2023-04-16T15:44:39.433Z,6
2023-04-16T15:49:39.281Z,6
2023-04-16T15:54:39.410Z,4
2023-04-16T15:59:39.272Z,3.7
2023-04-16T16:04:39.369Z,3.7
2023-04-16T16:09:39.686Z,3.7
2023-04-16T16:14:39.358Z,3.9
2023-04-16T16:19:39.380Z,3.9
2023-04-16T16:24:39.421Z,4
2023-04-16T16:29:39.326Z,4.3
2023-04-16T16:34:39.393Z,4.6
2023-04-16T16:39:40.369Z,4.6
2023-04-16T16:44:40.437Z,4.6
2023-04-16T16:49:39.275Z,4
2023-04-16T16:54:39.323Z,3.1
2023-04-16T16:59:39.358Z,3
2023-04-16T17:04:39.364Z,2.9
2023-04-16T17:09:39.525Z,2.9
2023-04-16T17:14:39.376Z,3
2023-04-16T17:19:39.424Z,3.1
2023-04-16T17:24:39.416Z,4.4
2023-04-16T17:29:39.381Z,4.7
2023-04-16T17:34:39.870Z,4.7
2023-04-16T17:39:39.386Z,4.7
2023-04-16T17:44:39.457Z,4.7
2023-04-16T17:49:39.355Z,4.5
2023-04-16T17:54:39.426Z,3.8
2023-04-16T17:59:39.618Z,3.8
2023-04-16T18:04:39.455Z,3.6
2023-04-16T18:09:39.422Z,3.6
2023-04-16T18:14:39.396Z,3.6
2023-04-16T18:19:39.455Z,3.6
2023-04-16T18:24:39.644Z,4
2023-04-16T18:29:45.438Z,4
2023-04-16T18:34:40.784Z,4
2023-04-16T18:39:39.515Z,4
2023-04-16T18:44:39.390Z,4
2023-04-16T18:49:39.388Z,3.6
2023-04-16T18:54:39.395Z,3.4
2023-04-16T18:59:40.415Z,3.4
2023-04-16T19:04:39.677Z,3.4
2023-04-16T19:09:39.450Z,3.4
2023-04-16T19:14:39.393Z,3.6
2023-04-16T19:19:39.368Z,3.4
2023-04-16T19:24:39.319Z,3.6
2023-04-16T19:29:39.349Z,3.8
2023-04-16T19:34:39.453Z,3.8
2023-04-16T19:39:39.407Z,3.8
2023-04-16T19:44:39.491Z,3.8
2023-04-16T19:49:39.371Z,3.8
2023-04-16T19:54:39.516Z,4.6
2023-04-16T19:59:39.396Z,4.9
2023-04-16T20:04:39.379Z,4.9
2023-04-16T20:09:39.831Z,4.9
2023-04-16T20:14:39.388Z,4.6
2023-04-16T20:19:39.345Z,4.7
2023-04-16T20:24:39.560Z,4.1
2023-04-16T20:29:39.453Z,3.6
2023-04-16T20:34:39.648Z,3.5
2023-04-16T20:39:39.445Z,3.5
2023-04-16T20:44:39.419Z,3.4
2023-04-16T20:49:39.410Z,3.4
2023-04-16T20:54:39.510Z,3.4
2023-04-16T20:59:39.438Z,3.4
2023-04-16T21:04:39.520Z,3.4
2023-04-16T21:09:39.362Z,3.4
2023-04-16T21:14:39.510Z,3.4
2023-04-16T21:19:39.388Z,3.6
2023-04-16T21:24:39.343Z,3.6
2023-04-16T21:29:39.760Z,3.6
2023-04-16T21:34:39.397Z,3.4
2023-04-16T21:39:39.445Z,3.3
2023-04-16T21:44:39.398Z,3.3
2023-04-16T21:49:39.366Z,3.3
2023-04-16T21:54:39.401Z,3.3
2023-04-16T21:59:39.404Z,3.3
2023-04-16T22:04:39.358Z,3.4
2023-04-16T22:09:39.776Z,3.5
2023-04-16T22:14:49.341Z,3.7
2023-04-16T22:19:39.433Z,4
2023-04-16T22:24:39.451Z,5.4
2023-04-16T22:29:39.401Z,5.4
2023-04-16T22:34:39.365Z,5.4
2023-04-16T22:39:39.346Z,5.4
2023-04-16T22:44:39.364Z,5.4
2023-04-16T22:49:39.380Z,5.4
2023-04-16T22:54:39.403Z,5.9
2023-04-16T22:59:39.889Z,5.7
2023-04-16T23:04:39.368Z,5.9
2023-04-16T23:09:39.429Z,6.6
2023-04-16T23:14:39.355Z,7.1
2023-04-16T23:19:39.350Z,7.4
2023-04-16T23:24:39.415Z,7.4
2023-04-16T23:29:39.424Z,7.5
2023-04-16T23:34:39.380Z,7.5
2023-04-16T23:39:39.591Z,7.4
2023-04-16T23:44:39.461Z,7.4
2023-04-16T23:49:39.391Z,7.4
2023-04-16T23:54:39.605Z,7.2
2023-04-16T23:59:39.399Z,7.1
